Classifiche di sempre
Migliori tempi personali validi di team tra tutti gli eventi e le stagioni. Ogni team compare una sola volta per divisione.
Cerca per nome e apri la pagina in cui è classificato questo record di divisione.
138,131 team in classifica
| Pos. | Pos. AG | Team | Nazionalità | Categoria età | TempoMiglior tempo | Distacco |
|---|---|---|---|---|---|---|
| 127326 | #18010 | Jake Figg & Gavin NichollsGBR · M 40-44 · AG #18010 | GBR | M 40-44 | 1:37:51 | +50:11 |
| 127327 | #9387 | Ross Johnson & Cameron MejiaUSA · M 16-24 · AG #9387 | USA | M 16-24 | 1:37:51 | +50:11 |
| 127328 | #46028 | Milo Bousseau-Watrin & Nicolas BousseauFRA · M 30-34 · AG #46028 | FRA | M 30-34 | 1:37:51 | +50:11 |
| 127329 | #46029 | Óscar Adrián García Contreras & David Alexis García ContrerasMEX · M 30-34 · AG #46029 | MEX | M 30-34 | 1:37:51 | +50:11 |
| 127330 | #46035 | 兆森 王 & 诗灏 崔CHN · M 30-34 · AG #46035 | CHN | M 30-34 | 1:37:51 | +50:11 |
| 127331 | #16411 | 俊吾 岩崎 & 佑一 金子JPN · M 25-29 · AG #16411 | JPN | M 25-29 | 1:37:51 | +50:11 |
| 127332 | #16410 | Harsharan Singh & Gursharan SinghHKG · M 25-29 · AG #16410 | HKG | M 25-29 | 1:37:51 | +50:11 |
| 127333 | #2730 | Kelvin Yue & Hiu Wai Ronnie KanHKG · M 50-54 · AG #2730 | HKG | M 50-54 | 1:37:51 | +50:11 |
| 127334 | #2731 | Martin Klepper & Hans Van BeijnenNED · M 50-54 · AG #2731 | NED | M 50-54 | 1:37:51 | +50:11 |
| 127335 | #46031 | Victor Navarro & Julian RozoUSA · M 30-34 · AG #46031 | USA | M 30-34 | 1:37:51 | +50:11 |
| 127336 | #46032 | Maxime Gora & Arnaud ChavrierFRA · M 30-34 · AG #46032 | FRA | M 30-34 | 1:37:51 | +50:11 |
| 127337 | #46033 | Tuan Vo & Jason LeeM 30-34 · AG #46033 | -- | M 30-34 | 1:37:51 | +50:11 |
| 127338 | -- | Antoine Garcia & Mohammed RarrboFRA · M MU29 | FRA | M MU29 | 1:37:51 | +50:11 |
| 127339 | #46034 | Cody McNeal & Denzyel JordanUSA · M 30-34 · AG #46034 | USA | M 30-34 | 1:37:51 | +50:11 |
| 127340 | #46036 | 琦 项 & 光辉 雷CHN · M 30-34 · AG #46036 | CHN | M 30-34 | 1:37:51 | +50:11 |
| 127341 | #14984 | Jason Bland & John HealeyGBR · M 35-39 · AG #14984 | GBR | M 35-39 | 1:37:51 | +50:11 |
| 127342 | #16412 | Ricardo Leija Vazquez & Jorge Garza GonzálezMEX · M 25-29 · AG #16412 | MEX | M 25-29 | 1:37:51 | +50:11 |
| 127343 | #18011 | Francisco Valencia Martínez Del Campo & Luis Arturo Monroy AbunaderMEX · M 40-44 · AG #18011 | MEX | M 40-44 | 1:37:52 | +50:12 |
| 127344 | #16413 | Dung Bach Nguyen & Murat DumencibasiM 25-29 · AG #16413 | -- | M 25-29 | 1:37:52 | +50:12 |
| 127345 | #46037 | Darren Katu & Bronson KatuNZL · M 30-34 · AG #46037 | NZL | M 30-34 | 1:37:52 | +50:12 |
| 127346 | #9388 | Adolfo Sandoval & Leandro GonzalezM 16-24 · AG #9388 | -- | M 16-24 | 1:37:52 | +50:12 |
| 127347 | #14985 | Arnaud Dussart & Jordan DewadderFRA · M 35-39 · AG #14985 | FRA | M 35-39 | 1:37:52 | +50:12 |
| 127348 | #14986 | Sidharth S & Anoop NIND · M 35-39 · AG #14986 | IND | M 35-39 | 1:37:52 | +50:12 |
| 127349 | #3886 | Warren Lau & Alan PoHKG · M 45-49 · AG #3886 | HKG | M 45-49 | 1:37:52 | +50:12 |
| 127350 | #46038 | Jeroen Vrins & Sven KooiNED · M 30-34 · AG #46038 | NED | M 30-34 | 1:37:52 | +50:12 |
Pagina 5,094 di 5,526